Detalii statie PETRESTI PETRESTI [0000197D]

Toti senzorii

Date Temperatura solului [C]Precipitatii [mm]Voltaj baterie [mV]Leaf Wetness [Min]HC Air temperature [C]HC Relative humidity [%]Punctul de roua [C]
medieminmaxsumaultimatimpmedieminmaxmediemediemin
2018-06-20 10:00:00 0 7000 27.08 26.4 27.78 60.45 18.5 18
2018-06-20 11:00:00 0 7196 28.74 28.02 29.42 54.57 18.4 18
2018-06-20 12:00:00 0 7216 30.03 29.3 30.78 48.9 17.9 17.2
2018-06-20 13:00:00 0 7216 31.43 30.64 32.48 44.26 17.6 15.6
2018-06-20 14:00:00 0 7216 32.15 31.08 33 40.24 16.6 15.1
2018-06-20 15:00:00 0 7216 32.18 31.71 33.09 39.79 16.5 16.1
2018-06-20 16:00:00 0 7216 32.5 31.62 33.24 36.8 15.5 14.7
2018-06-20 17:00:00 0 7216 31.78 31.01 32.73 39.87 16.1 15.6
2018-06-20 18:00:00 0 7206 30.76 29.66 32.14 44.21 16.9 16.5
2018-06-20 19:00:00 0 7118 29.69 28.99 30.03 46.17 16.5 16
2018-06-20 20:00:00 0 6952 27.81 26.59 28.93 53.05 17.1 16.4
2018-06-20 21:00:00 0 6914 25.38 24.4 26.35 62.49 17.5 17.3
2018-06-20 22:00:00 0 6844 23.62 23.09 24.21 68.31 17.2 16.8
2018-06-20 23:00:00 0 6834 22.61 22.32 23.14 71.44 17 16.9
2018-06-21 00:00:00 0 6826 21.98 21.5 22.56 72.74 16.7 16.6
2018-06-21 01:00:00 0 6806 20.58 20.01 21.34 80.87 17 16.5
2018-06-21 02:00:00 0 6806 19.82 19.51 20.19 87 17.4 17.3
2018-06-21 03:00:00 0 6806 19.9 19.43 20.19 84.67 17.1 16.9
2018-06-21 04:00:00 0 6796 18.54 17.84 19.2 92.18 17.1 17
2018-06-21 05:00:00 0 6786 17.62 16.91 17.95 98.95 17.3 16.8
2018-06-21 06:00:00 0 6816 18.65 17.1 20.5 96.5 17.9 17.1
2018-06-21 07:00:00 0 6854 22.23 20.98 23.77 80.76 18.6 18.2
2018-06-21 08:00:00 0 6884 25.21 24.06 27.87 66.38 18.3 17.3
2018-06-21 09:00:00 0 6962 27.37 26.18 29.49 57.42 18 17.5
2018-06-21 10:00:00 0 7020 29.57 28.88 30.4 49.33 17.6 16.7
2018-06-21 11:00:00 0 7216 29.7 29.39 30.27 44.25 15.9 14.9
2018-06-21 12:00:00 0 7216 31.06 29.62 32.18 42.06 16.4 15.5
2018-06-21 13:00:00 0 7216 31.88 30.83 33.32 38.33 15.6 14.7
2018-06-21 14:00:00 0 7226 32.24 30.95 33.29 38.99 16.3 15.8
2018-06-21 15:00:00 0 7206 31.52 30.33 33.59 43.46 17.3 16.4
2018-06-21 16:00:00 0 7216 30.56 30.14 31.83 48.51 18.3 17.6
2018-06-21 17:00:00 0 7206 31.12 30.39 31.71 48.44 18.7 18.1
2018-06-21 18:00:00 0 7088 28.92 28.05 30.2 53.96 18.4 17.5
2018-06-21 19:00:00 0 6992 27.03 26.34 27.91 58.04 17.9 17.5
2018-06-21 20:00:00 0 6884 25.62 25.08 26.23 66.08 18.6 18.3
2018-06-21 21:00:00 0 6864 23.8 22.97 24.82 75.15 19 18.7
2018-06-21 22:00:00 0 6816 22.57 22.25 22.91 80.58 18.9 18.8
2018-06-21 23:00:00 0 6826 21.08 19.82 22.25 87.99 18.8 18.5
2018-06-22 00:00:00 0 6816 20.12 19.78 20.51 94.15 19 18.6
2018-06-22 01:00:00 0 6786 19.27 18.6 19.75 97.64 18.7 18.6
2018-06-22 02:00:00 0 6786 18.94 18.81 19.03 100 18.9 18.8
2018-06-22 03:00:00 0 6776 19.05 19.01 19.09 100 19 19
2018-06-22 04:00:00 0 6786 18.97 18.94 19.06 100 18.9 18.9
2018-06-22 05:00:00 0 6776 19.13 18.57 20.49 98.46 18.7 18.5
2018-06-22 06:00:00 0 6786 17.42 16.32 19.75 79.89 13.7 12.9
2018-06-22 07:00:00 0 6834 16.75 16.4 17.09 84.42 14 13.7
2018-06-22 08:00:00 0 6874 17.27 16.4 18.15 82.21 14 13.7
2018-06-22 09:00:00 0 6982 17.48 16.77 18.13 82.01 14.2 13.9